North Walpole, New Hampshire
Current Conditions -  °F | °C
As of 4:54 PM on Monday 26 Jan 2015 (Local Time) from KVSF Reporting Station
Overcast Overcast  
Wind Chill: 11°   Ceiling: 7000
Heat Index: 19°   Visibility: 10mi
Dew Point:   Wind: 6mph
Humidity: 46%   Direction: 50°NE
Pressure: 30.07"   Gusts: NA
Location:  43.14°N, 72.45°W
Report Text: KVSF 262154Z AUTO 05005KT 10SM OVC070 M07/M17 A3007 RMK AO2 SLP195 T10721172 TSNO
Loading
Personal Weather Stations






























Interactive Weather Map New forecast layout! Learn more

10-Day Weather Forecast

Advertisements
Track Severe Weather on mobile